Time;durP1;ratioP1;P1;durP2;ratioP2;P2;SDS_P1;SDS_P2;PMS_P1;PMS_P2;Temp;Humidity;BMP_temperature;BMP_pressure;BME280_temperature;BME280_humidity;BME280_pressure;Samples;Min_cycle;Max_cycle;Signal;HPM_P1;HPM_P2
2021/07/25 00:00:05;;;;;;;35.75;32.00;;;18.60;99.90;;;;;;5055510;28;20021;-82
2021/07/25 00:02:32;;;;;;;40.45;32.63;;;18.60;99.90;;;;;;5055016;28;20096;-80
2021/07/25 00:04:58;;;;;;;34.05;30.63;;;18.60;99.90;;;;;;5054599;28;20025;-79
2021/07/25 00:07:23;;;;;;;34.58;30.88;;;18.70;99.90;;;;;;5055016;28;20021;-82
2021/07/25 00:09:49;;;;;;;35.42;31.77;;;18.70;99.90;;;;;;5055293;28;20021;-76
2021/07/25 00:12:15;;;;;;;34.72;31.02;;;18.70;99.90;;;;;;5054174;28;20021;-82
2021/07/25 00:14:40;;;;;;;35.33;31.63;;;18.70;99.90;;;;;;5054949;28;20048;-77
2021/07/25 00:17:06;;;;;;;37.50;33.63;;;18.70;99.90;;;;;;5055029;28;20037;-72
2021/07/25 00:19:31;;;;;;;35.40;31.63;;;18.70;99.90;;;;;;5054077;28;20036;-75
2021/07/25 00:21:57;;;;;;;35.50;31.90;;;18.70;99.90;;;;;;5054949;28;20092;-79
2021/07/25 00:24:29;;;;;;;35.85;31.55;;;18.70;99.90;;;;;;5053926;28;20029;-72
2021/07/25 00:26:57;;;;;;;34.63;30.88;;;18.70;99.90;;;;;;5037091;28;20044;-73
2021/07/25 00:29:25;;;;;;;35.22;31.42;;;18.70;99.90;;;;;;5054580;28;20024;-74
2021/07/25 00:31:50;;;;;;;34.83;31.20;;;18.70;99.90;;;;;;5054319;28;20028;-76
2021/07/25 00:34:16;;;;;;;35.85;32.33;;;18.70;99.90;;;;;;5054432;28;20021;-72
2021/07/25 00:36:41;;;;;;;38.00;33.15;;;18.70;99.90;;;;;;5054679;28;20025;-72
2021/07/25 00:39:10;;;;;;;37.08;33.17;;;18.60;99.90;;;;;;5053807;28;20485;-83
2021/07/25 00:41:37;;;;;;;38.60;33.28;;;18.60;99.90;;;;;;5054748;28;20120;-80
2021/07/25 00:44:02;;;;;;;35.33;31.65;;;18.60;99.90;;;;;;5054455;28;20107;-78
2021/07/25 00:46:28;;;;;;;35.58;32.08;;;18.60;99.90;;;;;;5035674;28;20119;-75
2021/07/25 00:48:55;;;;;;;35.92;32.15;;;18.60;99.90;;;;;;5036700;28;20079;-75
2021/07/25 00:51:22;;;;;;;38.25;34.35;;;18.70;99.90;;;;;;5053864;28;20053;-83
2021/07/25 00:53:48;;;;;;;36.20;32.28;;;18.60;99.90;;;;;;5035684;28;20579;-78
2021/07/25 00:56:14;;;;;;;37.67;32.33;;;18.70;99.90;;;;;;5053882;28;20104;-82
2021/07/25 00:58:42;;;;;;;37.08;33.13;;;18.70;99.90;;;;;;5054132;28;20188;-82
2021/07/25 01:01:09;;;;;;;36.38;32.58;;;18.70;99.90;;;;;;5053211;28;20071;-71
2021/07/25 01:03:53;;;;;;;36.03;32.40;;;18.70;99.90;;;;;;5053809;28;20039;-80
2021/07/25 01:06:56;;;;;;;37.47;33.50;;;18.70;99.90;;;;;;5054110;28;20433;-81
2021/07/25 01:09:43;;;;;;;38.67;34.65;;;18.60;99.90;;;;;;5053656;28;20477;-77
2021/07/25 01:12:16;;;;;;;37.45;33.58;;;18.60;99.90;;;;;;5035916;28;20115;-77
2021/07/25 01:14:43;;;;;;;41.05;33.55;;;18.60;99.90;;;;;;5053157;28;20358;-75
2021/07/25 01:17:28;;;;;;;37.72;32.55;;;18.50;99.90;;;;;;5053647;28;20073;-77
2021/07/25 01:19:54;;;;;;;35.92;32.28;;;18.50;99.90;;;;;;5053992;28;20057;-72
2021/07/25 01:22:20;;;;;;;35.70;32.00;;;18.50;99.90;;;;;;5052932;28;20025;-73
2021/07/25 01:24:46;;;;;;;36.45;32.65;;;18.40;99.90;;;;;;5053641;28;20092;-73
2021/07/25 01:27:26;;;;;;;36.53;32.83;;;18.40;99.90;;;;;;5035601;28;20021;-74
2021/07/25 01:29:54;;;;;;;37.05;33.13;;;18.40;99.90;;;;;;5034897;28;20021;-78
2021/07/25 01:32:21;;;;;;;42.17;34.13;;;18.40;99.90;;;;;;5035439;28;20056;-73
2021/07/25 01:34:48;;;;;;;38.35;34.33;;;18.30;99.90;;;;;;5053174;28;20056;-72
2021/07/25 01:37:14;;;;;;;37.17;33.47;;;18.30;99.90;;;;;;5053285;28;20390;-81
2021/07/25 01:39:40;;;;;;;38.45;34.47;;;18.30;99.90;;;;;;5053403;28;20424;-82
2021/07/25 01:42:05;;;;;;;38.25;34.35;;;18.30;99.90;;;;;;5052890;28;20025;-71
2021/07/25 01:44:31;;;;;;;38.58;34.60;;;18.30;99.90;;;;;;5053122;28;20481;-79
2021/07/25 01:46:56;;;;;;;37.20;33.42;;;18.30;99.90;;;;;;5035665;28;20496;-76
2021/07/25 01:49:23;;;;;;;36.13;32.55;;;18.30;99.90;;;;;;5052141;28;20029;-71
2021/07/25 01:51:48;;;;;;;36.28;32.60;;;18.30;99.90;;;;;;5053349;28;20521;-81
2021/07/25 01:54:14;;;;;;;38.30;34.50;;;18.30;99.90;;;;;;5035003;28;20032;-77
2021/07/25 01:56:39;;;;;;;39.65;35.40;;;18.30;99.90;;;;;;5052780;28;20024;-71
2021/07/25 01:59:05;;;;;;;38.92;35.03;;;18.30;99.90;;;;;;5052915;28;20041;-81
2021/07/25 02:01:30;;;;;;;36.55;32.95;;;18.30;99.90;;;;;;5052915;28;20025;-75
2021/07/25 02:03:56;;;;;;;38.92;34.63;;;18.30;99.90;;;;;;5052476;28;20397;-72
2021/07/25 02:06:22;;;;;;;36.63;32.72;;;18.30;99.90;;;;;;5052937;28;20473;-84
2021/07/25 02:08:48;;;;;;;37.40;33.35;;;18.30;99.90;;;;;;5035407;28;20513;-75
2021/07/25 02:11:14;;;;;;;37.85;33.80;;;18.30;99.90;;;;;;5052255;28;20025;-82
2021/07/25 02:13:39;;;;;;;37.55;33.83;;;18.30;99.90;;;;;;5052906;28;20029;-80
2021/07/25 02:16:05;;;;;;;38.03;33.95;;;18.30;99.90;;;;;;5034982;28;20436;-82
2021/07/25 02:18:30;;;;;;;36.67;33.17;;;18.30;99.90;;;;;;5051670;28;20489;-79
2021/07/25 02:20:56;;;;;;;36.38;32.65;;;18.30;99.90;;;;;;5034493;28;20021;-71
2021/07/25 02:23:21;;;;;;;35.47;31.88;;;18.30;99.90;;;;;;5034935;28;20032;-80
2021/07/25 02:25:47;;;;;;;37.22;33.63;;;18.30;99.90;;;;;;5034106;28;20028;-73
2021/07/25 02:28:12;;;;;;;34.47;30.88;;;18.30;99.90;;;;;;5052499;28;20021;-71
2021/07/25 02:30:39;;;;;;;38.45;34.30;;;18.20;99.90;;;;;;5034995;28;20028;-72
2021/07/25 02:33:05;;;;;;;39.78;35.33;;;18.20;99.90;;;;;;5034277;28;20025;-71
2021/07/25 02:35:31;;;;;;;37.22;33.33;;;18.20;99.90;;;;;;5052516;28;20029;-76
2021/07/25 02:37:57;;;;;;;38.30;34.33;;;18.10;99.90;;;;;;5052140;28;20117;-75
2021/07/25 02:40:23;;;;;;;35.10;31.50;;;18.10;99.90;;;;;;5052481;28;20103;-81
2021/07/25 02:42:49;;;;;;;38.03;33.85;;;18.00;99.90;;;;;;5052685;28;20073;-77
2021/07/25 02:45:14;;;;;;;37.25;32.95;;;18.00;99.90;;;;;;5033933;28;20482;-70
2021/07/25 02:47:40;;;;;;;36.58;32.80;;;18.00;99.90;;;;;;5052619;28;20026;-84
2021/07/25 02:50:06;;;;;;;36.90;33.08;;;17.90;99.90;;;;;;5034706;28;20025;-78
2021/07/25 02:52:31;;;;;;;36.30;32.60;;;17.90;99.90;;;;;;5033817;28;20028;-80
2021/07/25 02:54:57;;;;;;;37.03;33.35;;;17.90;99.90;;;;;;5052555;28;20030;-71
2021/07/25 02:57:23;;;;;;;36.85;32.90;;;17.90;99.90;;;;;;5052729;28;20033;-75
2021/07/25 02:59:48;;;;;;;38.28;34.17;;;17.90;99.90;;;;;;5033960;28;20045;-70
2021/07/25 03:02:14;;;;;;;37.00;32.30;;;18.00;99.90;;;;;;5034400;28;20017;-80
2021/07/25 03:04:41;;;;;;;39.88;34.47;;;18.00;99.90;;;;;;5052401;28;20032;-76
2021/07/25 03:07:07;;;;;;;35.97;32.17;;;18.00;99.90;;;;;;5051854;28;20017;-76
2021/07/25 03:09:32;;;;;;;36.67;32.78;;;18.00;99.90;;;;;;5052373;28;20033;-72
2021/07/25 03:11:58;;;;;;;42.70;34.97;;;18.00;99.90;;;;;;5034592;28;20021;-71
2021/07/25 03:14:23;;;;;;;34.30;30.90;;;17.90;99.90;;;;;;5051442;28;20366;-72
2021/07/25 03:16:49;;;;;;;36.28;32.50;;;17.90;99.90;;;;;;5034238;28;20482;-73
2021/07/25 03:19:14;;;;;;;36.78;32.97;;;17.80;99.90;;;;;;5034121;28;20029;-73
2021/07/25 03:21:40;;;;;;;36.72;32.83;;;17.80;99.90;;;;;;5051231;28;20033;-70
2021/07/25 03:24:06;;;;;;;35.58;31.98;;;17.70;99.90;;;;;;5034416;28;20021;-71
2021/07/25 03:26:31;;;;;;;34.22;30.83;;;17.70;99.90;;;;;;5051954;28;20030;-73
2021/07/25 03:28:57;;;;;;;36.03;32.28;;;17.60;99.90;;;;;;5051460;28;20017;-80
2021/07/25 03:31:22;;;;;;;37.53;33.45;;;17.60;99.90;;;;;;5052417;28;20029;-81
2021/07/25 03:33:48;;;;;;;35.35;31.85;;;17.60;99.90;;;;;;5055918;28;20032;-74
2021/07/25 03:36:14;;;;;;;36.30;32.47;;;17.60;99.90;;;;;;5055013;28;20025;-71
2021/07/25 03:38:39;;;;;;;35.30;31.67;;;17.60;99.90;;;;;;5055967;28;20033;-70
2021/07/25 03:41:05;;;;;;;36.03;32.33;;;17.60;99.90;;;;;;5055784;28;20021;-71
2021/07/25 03:43:32;;;;;;;35.20;31.50;;;17.60;99.90;;;;;;5054828;28;20346;-71
2021/07/25 03:45:57;;;;;;;36.22;32.45;;;17.50;99.90;;;;;;5038263;28;20457;-83
2021/07/25 03:48:24;;;;;;;36.30;32.70;;;17.50;99.90;;;;;;5054900;28;20020;-71
2021/07/25 03:50:50;;;;;;;35.53;31.80;;;17.50;99.90;;;;;;5055600;28;20021;-76
2021/07/25 03:53:15;;;;;;;37.47;32.72;;;17.50;99.90;;;;;;5054963;28;20027;-74
2021/07/25 03:55:45;;;;;;;34.97;31.38;;;17.50;99.90;;;;;;5054847;28;20036;-79
2021/07/25 03:58:10;;;;;;;36.15;32.17;;;17.50;99.90;;;;;;5055332;28;20025;-71
2021/07/25 04:00:37;;;;;;;37.60;33.28;;;17.50;99.90;;;;;;5055386;28;20025;-72
2021/07/25 04:03:03;;;;;;;34.97;31.10;;;17.50;99.90;;;;;;5054686;28;20021;-74
2021/07/25 04:05:28;;;;;;;34.88;31.33;;;17.60;99.90;;;;;;5055130;28;20112;-75
2021/07/25 04:07:55;;;;;;;34.17;30.65;;;17.50;99.90;;;;;;5055260;28;20485;-71
2021/07/25 04:10:21;;;;;;;34.45;30.88;;;17.50;99.90;;;;;;5036452;28;20021;-79
2021/07/25 04:12:47;;;;;;;35.17;31.30;;;17.50;99.90;;;;;;5055336;28;20028;-75
2021/07/25 04:15:13;;;;;;;33.72;30.02;;;17.40;99.90;;;;;;5054732;28;20025;-73
2021/07/25 04:17:38;;;;;;;32.85;29.40;;;17.40;99.90;;;;;;5054232;28;20439;-71
2021/07/25 04:20:05;;;;;;;34.00;30.30;;;17.40;99.90;;;;;;5055315;28;20021;-79
2021/07/25 04:22:35;;;;;;;32.33;29.02;;;17.30;99.90;;;;;;5054731;28;20021;-71
2021/07/25 04:25:02;;;;;;;31.55;28.23;;;17.40;99.90;;;;;;5054185;28;20024;-71
2021/07/25 04:27:28;;;;;;;32.38;28.70;;;17.40;99.90;;;;;;5036808;28;20025;-78
2021/07/25 04:29:55;;;;;;;31.60;28.50;;;17.30;99.90;;;;;;5054909;28;20052;-78
2021/07/25 04:32:21;;;;;;;31.55;28.15;;;17.30;99.90;;;;;;5054009;28;20032;-78
2021/07/25 04:34:47;;;;;;;31.48;28.17;;;17.30;99.90;;;;;;5037166;28;20393;-71
2021/07/25 04:37:22;;;;;;;33.03;28.65;;;17.40;99.90;;;;;;5036784;28;20027;-79
2021/07/25 04:39:48;;;;;;;29.10;26.00;;;17.40;99.90;;;;;;5053960;28;20392;-79
2021/07/25 04:42:17;;;;;;;30.48;26.65;;;17.40;99.90;;;;;;5036047;28;20060;-77
2021/07/25 04:44:51;;;;;;;29.90;26.90;;;17.50;99.90;;;;;;5053558;28;20024;-75
2021/07/25 04:47:23;;;;;;;29.45;26.23;;;17.60;99.90;;;;;;5054362;28;20020;-74
2021/07/25 04:50:09;;;;;;;29.38;26.40;;;17.70;99.90;;;;;;5054686;28;20378;-72
2021/07/25 04:52:38;;;;;;;28.70;25.65;;;17.90;99.90;;;;;;5053745;28;20021;-81
2021/07/25 04:55:06;;;;;;;28.23;25.27;;;18.00;99.90;;;;;;5036410;28;20032;-77
2021/07/25 04:57:41;;;;;;;27.40;24.55;;;18.10;99.90;;;;;;5036094;28;20385;-75
2021/07/25 05:00:09;;;;;;;26.95;24.33;;;18.20;99.90;;;;;;5053790;28;20064;-70
2021/07/25 05:02:39;;;;;;;27.63;24.33;;;18.40;99.90;;;;;;5054241;28;20028;-76
2021/07/25 05:05:05;;;;;;;25.55;23.05;;;18.50;99.90;;;;;;5036142;28;20381;-84
2021/07/25 05:07:37;;;;;;;25.42;22.90;;;18.60;99.90;;;;;;5053247;28;20033;-72
2021/07/25 05:10:03;;;;;;;25.10;22.50;;;18.60;99.90;;;;;;5054380;28;20103;-72
2021/07/25 05:12:44;;;;;;;23.65;21.27;;;18.70;99.90;;;;;;5053732;28;20388;-75
2021/07/25 05:15:20;;;;;;;22.67;20.35;;;18.70;99.90;;;;;;5035579;28;20025;-80
2021/07/25 05:18:07;;;;;;;22.98;20.67;;;18.80;99.90;;;;;;5053761;28;20048;-70
2021/07/25 05:20:47;;;;;;;22.10;19.92;;;18.80;99.90;;;;;;5035266;28;20048;-72
2021/07/25 05:23:27;;;;;;;22.63;20.30;;;18.80;99.90;;;;;;5053501;28;20033;-71
2021/07/25 05:25:55;;;;;;;20.00;18.07;;;18.70;99.90;;;;;;5053853;28;20036;-75
2021/07/25 05:28:22;;;;;;;21.75;19.45;;;18.70;99.90;;;;;;5052753;28;20025;-83
2021/07/25 05:30:52;;;;;;;19.88;17.80;;;18.60;99.90;;;;;;5035910;28;20025;-74
2021/07/25 05:33:20;;;;;;;20.17;18.17;;;18.50;99.90;;;;;;5053452;28;20097;-79
2021/07/25 05:35:46;;;;;;;18.58;16.67;;;18.50;99.90;;;;;;5053220;28;20562;-72
2021/07/25 05:38:11;;;;;;;17.85;16.02;;;18.40;99.90;;;;;;5053179;28;20072;-73
2021/07/25 05:40:37;;;;;;;18.23;16.42;;;18.40;99.90;;;;;;5053556;28;20024;-75
2021/07/25 05:43:03;;;;;;;18.05;16.17;;;18.40;99.90;;;;;;5052713;28;20074;-81
2021/07/25 05:45:28;;;;;;;17.25;15.52;;;18.40;99.90;;;;;;5053181;28;20414;-73
2021/07/25 05:47:54;;;;;;;17.67;15.77;;;18.40;99.90;;;;;;5052747;28;20085;-76
2021/07/25 05:50:19;;;;;;;16.38;14.70;;;18.50;99.90;;;;;;5053076;28;20036;-77
2021/07/25 05:52:56;;;;;;;15.68;14.15;;;18.50;99.90;;;;;;5053401;28;20095;-72
2021/07/25 05:55:24;;;;;;;15.80;14.10;;;18.70;99.90;;;;;;5033513;28;20025;-70
2021/07/25 05:57:50;;;;;;;14.60;13.20;;;18.80;99.90;;;;;;5052984;28;20017;-71
2021/07/25 06:00:15;;;;;;;17.88;14.60;;;19.00;99.90;;;;;;5052974;28;20029;-71
2021/07/25 06:03:12;;;;;;;14.80;13.38;;;19.20;99.90;;;;;;5052634;28;20025;-72
2021/07/25 06:05:37;;;;;;;14.02;12.52;;;19.50;99.90;;;;;;5041147;28;20106;-72
2021/07/25 06:08:05;;;;;;;14.60;13.10;;;19.60;99.90;;;;;;5042780;28;20020;-82
2021/07/25 06:10:32;;;;;;;14.23;12.80;;;19.80;99.90;;;;;;5058190;28;20043;-69
2021/07/25 06:13:00;;;;;;;13.73;12.32;;;19.90;99.90;;;;;;5041365;28;20017;-70
2021/07/25 06:15:27;;;;;;;13.00;11.57;;;20.10;99.90;;;;;;5060829;28;20069;-81
2021/07/25 06:17:52;;;;;;;12.27;11.10;;;20.30;99.90;;;;;;5057490;28;20123;-71
2021/07/25 06:20:19;;;;;;;17.02;13.20;;;20.50;99.90;;;;;;5060173;28;20452;-70
2021/07/25 06:22:49;;;;;;;12.07;10.85;;;20.60;99.90;;;;;;5059859;28;20055;-70
2021/07/25 06:25:21;;;;;;;12.30;11.10;;;20.60;99.90;;;;;;5041167;28;20385;-70
2021/07/25 06:27:51;;;;;;;12.40;11.15;;;20.70;99.90;;;;;;5056362;28;20025;-70
2021/07/25 06:30:18;;;;;;;12.55;11.02;;;20.70;99.90;;;;;;5041964;28;20020;-74
2021/07/25 06:32:58;;;;;;;13.77;11.27;;;20.70;99.90;;;;;;5061706;28;20099;-74
2021/07/25 06:35:28;;;;;;;11.73;10.30;;;20.70;99.90;;;;;;5044831;28;20024;-70
2021/07/25 06:37:54;;;;;;;11.50;10.30;;;20.70;99.90;;;;;;5059155;28;20500;-79
2021/07/25 06:40:20;;;;;;;11.57;10.48;;;20.60;99.90;;;;;;5061390;28;20024;-70
2021/07/25 06:42:46;;;;;;;11.98;10.77;;;20.50;99.90;;;;;;5061924;28;20488;-70
2021/07/25 06:45:12;;;;;;;11.20;9.50;;;20.40;99.90;;;;;;5059824;28;20032;-82
2021/07/25 06:47:38;;;;;;;11.50;10.40;;;20.30;99.90;;;;;;5060847;28;20092;-73
2021/07/25 06:50:04;;;;;;;10.88;9.40;;;20.20;99.90;;;;;;5060933;28;20099;-70
2021/07/25 06:52:30;;;;;;;11.40;9.52;;;20.10;99.90;;;;;;5060428;28;20175;-70
2021/07/25 06:54:55;;;;;;;11.25;9.50;;;20.00;99.90;;;;;;5059706;28;20473;-72
2021/07/25 06:57:21;;;;;;;9.88;8.80;;;20.00;99.90;;;;;;5043823;28;20060;-76
2021/07/25 06:59:46;;;;;;;11.98;9.35;;;20.00;99.90;;;;;;5058117;28;20496;-80
2021/07/25 07:02:12;;;;;;;10.52;8.90;;;20.00;99.90;;;;;;5044230;28;20011;-74
2021/07/25 07:04:37;;;;;;;10.75;8.77;;;20.00;99.90;;;;;;5060815;28;20357;-70
2021/07/25 07:07:05;;;;;;;11.15;8.98;;;20.00;99.90;;;;;;5060173;28;20141;-76
2021/07/25 07:09:30;;;;;;;10.18;8.82;;;20.00;99.90;;;;;;5046846;28;20035;-73
2021/07/25 07:11:58;;;;;;;10.23;8.57;;;20.10;99.90;;;;;;5065485;28;20100;-71
2021/07/25 07:14:24;;;;;;;11.80;8.43;;;20.10;99.90;;;;;;5062780;28;20025;-71
2021/07/25 07:16:50;;;;;;;10.05;9.05;;;20.10;99.90;;;;;;5065275;28;20055;-77
2021/07/25 07:19:15;;;;;;;11.70;9.45;;;20.10;99.90;;;;;;5064199;28;20083;-71
2021/07/25 07:21:41;;;;;;;10.00;8.95;;;20.20;99.90;;;;;;5064145;28;20419;-72
2021/07/25 07:24:07;;;;;;;9.52;8.60;;;20.20;99.90;;;;;;5037985;28;20557;-72
2021/07/25 07:26:32;;;;;;;11.38;8.60;;;20.20;99.90;;;;;;5038125;28;20143;-78
2021/07/25 07:28:58;;;;;;;10.20;8.88;;;20.30;99.90;;;;;;5069086;28;20074;-81
2021/07/25 07:31:23;;;;;;;11.10;10.00;;;20.30;99.90;;;;;;5063250;28;20100;-72
2021/07/25 07:33:49;;;;;;;12.45;10.00;;;20.40;99.90;;;;;;5041475;28;20028;-78
2021/07/25 07:36:14;;;;;;;10.27;8.80;;;20.40;99.90;;;;;;5062449;28;20056;-81
2021/07/25 07:38:40;;;;;;;9.75;8.10;;;20.40;99.90;;;;;;5048185;28;20052;-72
2021/07/25 07:41:05;;;;;;;9.68;8.25;;;20.50;99.90;;;;;;5055716;28;20020;-71
2021/07/25 07:43:31;;;;;;;10.20;8.40;;;20.50;99.90;;;;;;5064709;28;20111;-73
2021/07/25 07:45:56;;;;;;;8.98;8.07;;;20.60;99.90;;;;;;5055422;28;20426;-70
2021/07/25 07:48:23;;;;;;;8.88;8.02;;;20.60;99.90;;;;;;5061585;28;20058;-78
2021/07/25 07:50:48;;;;;;;9.77;7.47;;;20.70;99.90;;;;;;5060820;28;20036;-74
2021/07/25 07:53:14;;;;;;;8.85;7.97;;;20.70;99.90;;;;;;5051703;28;20029;-74
2021/07/25 07:55:40;;;;;;;7.55;6.75;;;20.80;99.90;;;;;;5048307;28;20078;-74
2021/07/25 07:58:05;;;;;;;8.30;6.97;;;20.90;99.90;;;;;;5061677;28;20068;-80
2021/07/25 08:00:31;;;;;;;7.75;6.70;;;20.90;99.90;;;;;;5061944;28;20435;-71
2021/07/25 08:02:56;;;;;;;7.75;6.78;;;21.00;99.90;;;;;;5046703;28;20023;-71
2021/07/25 08:05:22;;;;;;;9.75;7.45;;;21.00;99.90;;;;;;5062517;28;20466;-74
2021/07/25 08:07:48;;;;;;;9.98;7.57;;;21.00;99.90;;;;;;5062875;28;20026;-73
2021/07/25 08:10:14;;;;;;;8.25;7.15;;;21.10;99.90;;;;;;5071081;28;20024;-81
2021/07/25 08:12:40;;;;;;;6.93;5.93;;;21.10;99.90;;;;;;5039370;28;20426;-72
2021/07/25 08:15:08;;;;;;;8.75;6.10;;;21.20;99.90;;;;;;5054164;28;20104;-72
2021/07/25 08:17:33;;;;;;;6.68;5.97;;;21.30;99.90;;;;;;5054452;28;20427;-79
2021/07/25 08:19:59;;;;;;;6.63;5.65;;;21.40;99.90;;;;;;5053718;28;20511;-72
2021/07/25 08:22:25;;;;;;;6.60;5.50;;;21.40;99.90;;;;;;5062029;28;20017;-79
2021/07/25 08:24:50;;;;;;;7.32;5.68;;;21.50;99.90;;;;;;5069852;28;20379;-77
2021/07/25 08:27:16;;;;;;;7.57;5.40;;;21.50;99.90;;;;;;5056305;28;20020;-73
2021/07/25 08:29:42;;;;;;;7.35;6.55;;;21.60;99.90;;;;;;5048192;28;20025;-72
2021/07/25 08:32:09;;;;;;;7.35;6.32;;;21.70;99.90;;;;;;5036255;28;20013;-72
2021/07/25 08:34:34;;;;;;;7.25;6.07;;;21.70;99.90;;;;;;5054444;28;20079;-74
2021/07/25 08:37:00;;;;;;;6.75;6.07;;;21.80;99.90;;;;;;5059542;28;20029;-72
2021/07/25 08:39:26;;;;;;;7.25;6.38;;;21.80;99.90;;;;;;5061602;28;20135;-71
2021/07/25 08:42:03;;;;;;;7.18;6.45;;;21.90;99.90;;;;;;5045242;28;20025;-72
2021/07/25 08:44:38;;;;;;;9.02;6.75;;;22.00;99.90;;;;;;5045934;28;20031;-71
2021/07/25 08:47:32;;;;;;;7.63;5.97;;;22.10;99.90;;;;;;5064119;28;20071;-71
2021/07/25 08:50:09;;;;;;;5.47;4.95;;;22.20;99.90;;;;;;5061004;28;20021;-75
2021/07/25 08:52:37;;;;;;;6.65;5.22;;;22.50;99.90;;;;;;5067972;28;20025;-73
2021/07/25 08:55:12;;;;;;;9.32;5.90;;;22.70;99.90;;;;;;5056853;28;20021;-72
2021/07/25 08:57:40;;;;;;;7.22;6.05;;;22.90;99.90;;;;;;5048132;28;20032;-72
2021/07/25 09:00:08;;;;;;;7.53;6.00;;;23.20;99.90;;;;;;5042087;28;20041;-71
2021/07/25 09:02:34;;;;;;;9.77;5.93;;;23.40;99.90;;;;;;5058790;28;20032;-78
2021/07/25 09:05:00;;;;;;;8.05;6.10;;;23.40;99.90;;;;;;5059161;28;20093;-77
2021/07/25 09:07:28;;;;;;;6.85;5.70;;;23.40;99.90;;;;;;5060156;28;20025;-72
2021/07/25 09:09:56;;;;;;;9.55;6.57;;;23.30;99.90;;;;;;5045979;28;20048;-70
2021/07/25 09:12:23;;;;;;;6.50;5.85;;;23.20;99.90;;;;;;5069697;28;20451;-71
2021/07/25 09:14:54;;;;;;;8.75;6.25;;;23.10;99.90;;;;;;5070293;28;20025;-76
2021/07/25 09:17:21;;;;;;;9.02;6.25;;;23.10;99.90;;;;;;5059877;28;20545;-83
2021/07/25 09:20:08;;;;;;;7.07;6.30;;;23.10;99.90;;;;;;5019227;28;20060;-72
2021/07/25 09:22:34;;;;;;;6.72;5.43;;;23.10;99.90;;;;;;5053347;28;20017;-70
2021/07/25 09:25:00;;;;;;;6.95;5.50;;;23.00;99.90;;;;;;5053993;28;20021;-79
2021/07/25 09:27:26;;;;;;;5.82;5.07;;;23.10;99.90;;;;;;5034995;28;20116;-82
2021/07/25 09:29:51;;;;;;;5.55;4.90;;;23.10;99.90;;;;;;5038080;28;20017;-74
2021/07/25 09:32:18;;;;;;;5.65;5.07;;;23.20;99.90;;;;;;5033835;28;20028;-71
2021/07/25 09:34:51;;;;;;;6.07;5.25;;;23.30;99.90;;;;;;5052562;28;20040;-71
2021/07/25 09:37:22;;;;;;;9.75;6.05;;;23.50;99.90;;;;;;5030968;28;20039;-69
2021/07/25 09:39:48;;;;;;;;;;;23.50;99.90;;;;;;5042325;28;20419;-71
2021/07/25 09:42:15;;;;;;;5.78;5.25;;;23.60;99.90;;;;;;5034351;28;19999;-70
2021/07/25 09:45:00;;;;;;;8.43;6.85;;;23.60;99.90;;;;;;5035370;28;20131;-71
2021/07/25 09:47:35;;;;;;;5.68;4.85;;;23.60;99.90;;;;;;5052453;28;20024;-70
2021/07/25 09:50:03;;;;;;;5.40;4.90;;;23.60;99.90;;;;;;5053262;28;20021;-70
2021/07/25 09:52:34;;;;;;;6.38;5.40;;;23.60;99.90;;;;;;5034532;28;20490;-72
2021/07/25 09:55:08;;;;;;;6.55;5.03;;;23.60;99.90;;;;;;5053162;28;20043;-73
2021/07/25 09:57:37;;;;;;;5.80;4.40;;;23.70;99.90;;;;;;5053223;28;20029;-70
2021/07/25 10:00:09;;;;;;;6.32;5.22;;;23.80;99.90;;;;;;5052491;28;20036;-71
2021/07/25 10:02:47;;;;;;;10.07;7.10;;;23.90;99.90;;;;;;5053090;28;20423;-71
2021/07/25 10:05:19;;;;;;;6.40;5.80;;;24.10;99.90;;;;;;5034883;28;20469;-70
2021/07/25 10:07:46;;;;;;;7.50;6.63;;;24.20;99.90;;;;;;5034735;28;20493;-71
2021/07/25 10:10:16;;;;;;;7.15;6.45;;;24.20;99.90;;;;;;5052836;28;20023;-70
2021/07/25 10:12:44;;;;;;;8.60;6.25;;;24.40;99.90;;;;;;5035148;28;20021;-70
2021/07/25 10:15:16;;;;;;;7.03;6.30;;;24.40;99.90;;;;;;5034051;28;20025;-70
2021/07/25 10:17:43;;;;;;;9.30;6.57;;;24.50;99.90;;;;;;5034945;28;20052;-72
2021/07/25 10:20:11;;;;;;;7.75;6.95;;;24.60;99.90;;;;;;5052502;28;20118;-71
2021/07/25 10:22:38;;;;;;;7.70;6.28;;;24.60;99.90;;;;;;5051600;28;20033;-72
2021/07/25 10:25:06;;;;;;;8.80;6.38;;;24.60;99.90;;;;;;5052882;28;20025;-71
2021/07/25 10:27:33;;;;;;;8.02;5.97;;;24.40;99.90;;;;;;5051985;28;20021;-73
2021/07/25 10:30:07;;;;;;;8.90;6.53;;;24.30;99.90;;;;;;5052837;28;20048;-71
2021/07/25 10:32:34;;;;;;;8.45;6.10;;;24.20;99.90;;;;;;5052801;28;20017;-71
2021/07/25 10:35:10;;;;;;;7.55;6.72;;;24.10;99.90;;;;;;5051832;28;20021;-74
2021/07/25 10:37:37;;;;;;;7.60;6.00;;;24.00;99.90;;;;;;5034777;28;20159;-71
2021/07/25 10:40:05;;;;;;;6.85;6.15;;;24.00;99.90;;;;;;5034684;28;20061;-72
2021/07/25 10:42:32;;;;;;;6.72;5.80;;;24.20;99.90;;;;;;5033242;28;20435;-71
2021/07/25 10:44:58;;;;;;;7.13;5.57;;;24.30;99.90;;;;;;5052205;28;20033;-71
2021/07/25 10:47:28;;;;;;;8.05;5.78;;;24.40;99.90;;;;;;5052318;28;20028;-75
2021/07/25 10:50:00;;;;;;;6.70;6.10;;;24.40;99.90;;;;;;5034099;28;20179;-82
2021/07/25 10:52:45;;;;;;;9.07;5.60;;;24.40;99.90;;;;;;5052192;28;20108;-71
2021/07/25 10:55:34;;;;;;;8.30;6.13;;;24.40;99.90;;;;;;5034129;28;20028;-70
2021/07/25 10:58:05;;;;;;;8.85;5.35;;;24.50;99.90;;;;;;5034511;28;20088;-71
2021/07/25 11:00:56;;;;;;;5.85;5.25;;;24.40;99.90;;;;;;5052063;28;20063;-70
2021/07/25 11:03:24;;;;;;;8.57;5.53;;;24.40;99.90;;;;;;5051258;28;20021;-75
2021/07/25 11:05:59;;;;;;;6.63;5.95;;;24.50;99.90;;;;;;5052603;28;20063;-71
2021/07/25 11:08:32;;;;;;;7.30;6.35;;;24.80;99.90;;;;;;5051942;28;20107;-71
2021/07/25 11:10:58;;;;;;;7.47;6.22;;;25.10;99.90;;;;;;5051715;28;20025;-75
2021/07/25 11:13:38;;;;;;;6.57;5.57;;;25.40;99.90;;;;;;5051915;28;20025;-70
2021/07/25 11:16:32;;;;;;;7.55;6.15;;;25.50;99.90;;;;;;5052433;28;20362;-71
2021/07/25 11:18:58;;;;;;;6.90;5.22;;;25.50;99.90;;;;;;5052180;28;20095;-70
2021/07/25 11:21:39;;;;;;;6.05;5.43;;;25.60;99.90;;;;;;5034001;28;20017;-69
2021/07/25 11:24:23;;;;;;;6.32;5.70;;;25.70;99.90;;;;;;5051509;28;20013;-74
2021/07/25 11:27:03;;;;;;;7.45;6.13;;;25.80;99.90;;;;;;5034306;28;20037;-70
2021/07/25 11:29:32;;;;;;;7.40;6.10;;;26.00;98.90;;;;;;5051948;28;20071;-71
2021/07/25 11:31:58;;;;;;;9.05;6.47;;;26.20;98.60;;;;;;5033603;28;20028;-71
2021/07/25 11:34:31;;;;;;;6.38;5.32;;;26.20;98.50;;;;;;5051651;28;20075;-70
2021/07/25 11:37:01;;;;;;;6.43;5.32;;;26.30;99.10;;;;;;5034215;28;20385;-70
2021/07/25 11:39:27;;;;;;;8.13;5.32;;;26.30;98.70;;;;;;5033122;28;20029;-70
2021/07/25 11:41:52;;;;;;;8.38;5.22;;;26.20;98.50;;;;;;5051872;28;20098;-70
2021/07/25 11:44:31;;;;;;;7.53;5.95;;;26.10;98.60;;;;;;5033784;28;20117;-70
2021/07/25 11:46:58;;;;;;;8.07;5.28;;;26.00;97.70;;;;;;5051323;28;20044;-75
2021/07/25 11:49:28;;;;;;;5.93;5.10;;;26.10;97.80;;;;;;5051694;28;20028;-70
2021/07/25 11:51:59;;;;;;;6.47;4.90;;;26.10;97.50;;;;;;5051269;28;20481;-70
2021/07/25 11:54:35;;;;;;;5.78;4.35;;;26.00;97.50;;;;;;5035658;28;20028;-70
2021/07/25 11:57:08;;;;;;;6.55;4.93;;;25.90;98.50;;;;;;5037615;28;20025;-69
2021/07/25 11:59:38;;;;;;;6.35;4.63;;;25.80;99.00;;;;;;5054811;28;20033;-72
2021/07/25 12:02:05;;;;;;;6.90;5.00;;;25.80;99.10;;;;;;5055443;28;20021;-71
2021/07/25 12:04:33;;;;;;;5.97;4.05;;;25.70;99.40;;;;;;5055012;28;20017;-70
2021/07/25 12:07:04;;;;;;;5.75;4.82;;;25.70;99.70;;;;;;5036787;28;20025;-70
2021/07/25 12:09:31;;;;;;;5.35;4.80;;;25.50;99.20;;;;;;5037216;28;20024;-77
2021/07/25 12:12:02;;;;;;;6.90;5.90;;;25.50;99.20;;;;;;5055318;28;20071;-78
2021/07/25 12:14:35;;;;;;;6.32;4.68;;;25.40;98.70;;;;;;5036330;28;20025;-72
2021/07/25 12:17:10;;;;;;;5.43;4.90;;;25.50;98.50;;;;;;5045170;28;20041;-85
2021/07/25 12:19:39;;;;;;;7.03;5.03;;;25.50;98.00;;;;;;5050266;28;20072;-74
2021/07/25 12:22:17;;;;;;;6.72;4.75;;;25.60;98.20;;;;;;5048041;28;20068;-71
2021/07/25 12:24:49;;;;;;;5.30;4.32;;;25.70;98.50;;;;;;5041093;28;20040;-77
2021/07/25 12:27:31;;;;;;;5.53;4.28;;;25.80;98.80;;;;;;5036155;28;20090;-76
2021/07/25 12:30:10;;;;;;;4.63;3.90;;;26.00;98.90;;;;;;5036793;28;20112;-73
2021/07/25 12:32:36;;;;;;;4.50;3.35;;;26.10;97.70;;;;;;5041927;28;20130;-72
2021/07/25 12:35:11;;;;;;;5.10;3.53;;;26.10;97.50;;;;;;5029559;28;20501;-72
2021/07/25 12:37:54;;;;;;;5.78;3.88;;;26.20;97.40;;;;;;5029607;28;20493;-75
2021/07/25 12:40:25;;;;;;;7.00;4.03;;;26.20;97.10;;;;;;5029730;28;20069;-73
2021/07/25 12:43:03;;;;;;;5.95;3.92;;;26.20;96.70;;;;;;5045511;28;20026;-73